sensor_id;sensor_type;location;lat;lon;timestamp;P1;durP1;ratioP1;P2;durP2;ratioP2
2305;SDS011;1161;51.922;8.896;2024-01-27T00:01:26;28.57;;;8.53;;
2305;SDS011;1161;51.922;8.896;2024-01-27T00:03:54;31.03;;;5.47;;
2305;SDS011;1161;51.922;8.896;2024-01-27T00:06:22;26.37;;;6.03;;
2305;SDS011;1161;51.922;8.896;2024-01-27T00:08:49;37.13;;;6.00;;
2305;SDS011;1161;51.922;8.896;2024-01-27T00:11:16;17.67;;;5.53;;
2305;SDS011;1161;51.922;8.896;2024-01-27T00:13:44;13.20;;;4.70;;
2305;SDS011;1161;51.922;8.896;2024-01-27T00:16:11;19.40;;;6.40;;
2305;SDS011;1161;51.922;8.896;2024-01-27T00:18:38;23.87;;;5.77;;
2305;SDS011;1161;51.922;8.896;2024-01-27T00:21:05;27.80;;;5.13;;
2305;SDS011;1161;51.922;8.896;2024-01-27T00:23:34;26.67;;;5.10;;
2305;SDS011;1161;51.922;8.896;2024-01-27T00:26:01;44.60;;;6.73;;
2305;SDS011;1161;51.922;8.896;2024-01-27T00:28:27;36.37;;;5.60;;
2305;SDS011;1161;51.922;8.896;2024-01-27T00:30:54;16.00;;;6.17;;
2305;SDS011;1161;51.922;8.896;2024-01-27T00:33:21;18.90;;;4.90;;
2305;SDS011;1161;51.922;8.896;2024-01-27T00:35:47;20.17;;;5.00;;
2305;SDS011;1161;51.922;8.896;2024-01-27T00:38:14;33.60;;;6.47;;
2305;SDS011;1161;51.922;8.896;2024-01-27T00:40:42;17.60;;;5.60;;
2305;SDS011;1161;51.922;8.896;2024-01-27T00:43:10;23.90;;;6.40;;
2305;SDS011;1161;51.922;8.896;2024-01-27T00:45:36;14.20;;;4.80;;
2305;SDS011;1161;51.922;8.896;2024-01-27T00:48:04;14.77;;;5.27;;
2305;SDS011;1161;51.922;8.896;2024-01-27T00:50:31;28.80;;;6.90;;
2305;SDS011;1161;51.922;8.896;2024-01-27T00:52:58;17.93;;;5.80;;
2305;SDS011;1161;51.922;8.896;2024-01-27T00:55:25;31.50;;;6.33;;
2305;SDS011;1161;51.922;8.896;2024-01-27T00:57:53;21.57;;;6.13;;
2305;SDS011;1161;51.922;8.896;2024-01-27T01:00:20;16.90;;;5.27;;
2305;SDS011;1161;51.922;8.896;2024-01-27T01:02:47;30.10;;;6.60;;
2305;SDS011;1161;51.922;8.896;2024-01-27T01:05:13;20.93;;;6.40;;
2305;SDS011;1161;51.922;8.896;2024-01-27T01:07:40;28.63;;;7.17;;
2305;SDS011;1161;51.922;8.896;2024-01-27T01:10:07;22.83;;;5.67;;
2305;SDS011;1161;51.922;8.896;2024-01-27T01:12:35;32.33;;;6.83;;
2305;SDS011;1161;51.922;8.896;2024-01-27T01:15:03;20.03;;;5.97;;
2305;SDS011;1161;51.922;8.896;2024-01-27T01:17:30;11.30;;;5.67;;
2305;SDS011;1161;51.922;8.896;2024-01-27T01:19:57;11.43;;;6.23;;
2305;SDS011;1161;51.922;8.896;2024-01-27T01:22:24;36.23;;;5.80;;
2305;SDS011;1161;51.922;8.896;2024-01-27T01:24:51;17.87;;;6.90;;
2305;SDS011;1161;51.922;8.896;2024-01-27T01:27:18;24.00;;;6.37;;
2305;SDS011;1161;51.922;8.896;2024-01-27T01:29:46;20.07;;;7.17;;
2305;SDS011;1161;51.922;8.896;2024-01-27T01:32:14;14.40;;;6.13;;
2305;SDS011;1161;51.922;8.896;2024-01-27T01:34:41;19.20;;;5.60;;
2305;SDS011;1161;51.922;8.896;2024-01-27T01:37:08;11.90;;;5.53;;
2305;SDS011;1161;51.922;8.896;2024-01-27T01:39:35;40.17;;;7.20;;
2305;SDS011;1161;51.922;8.896;2024-01-27T01:42:02;26.40;;;6.13;;
2305;SDS011;1161;51.922;8.896;2024-01-27T01:44:30;30.93;;;8.63;;
2305;SDS011;1161;51.922;8.896;2024-01-27T01:46:57;23.07;;;7.60;;
2305;SDS011;1161;51.922;8.896;2024-01-27T01:49:26;24.63;;;4.97;;
2305;SDS011;1161;51.922;8.896;2024-01-27T01:51:53;25.43;;;5.47;;
2305;SDS011;1161;51.922;8.896;2024-01-27T01:54:19;23.87;;;6.50;;
2305;SDS011;1161;51.922;8.896;2024-01-27T01:56:48;47.30;;;8.10;;
2305;SDS011;1161;51.922;8.896;2024-01-27T01:59:16;14.20;;;5.10;;
2305;SDS011;1161;51.922;8.896;2024-01-27T02:01:42;19.80;;;5.90;;
2305;SDS011;1161;51.922;8.896;2024-01-27T02:04:09;31.10;;;5.80;;
2305;SDS011;1161;51.922;8.896;2024-01-27T02:06:38;29.33;;;8.03;;
2305;SDS011;1161;51.922;8.896;2024-01-27T02:09:05;22.03;;;5.73;;
2305;SDS011;1161;51.922;8.896;2024-01-27T02:11:31;13.47;;;6.50;;
2305;SDS011;1161;51.922;8.896;2024-01-27T02:13:58;25.33;;;6.63;;
2305;SDS011;1161;51.922;8.896;2024-01-27T02:16:25;14.83;;;5.50;;
2305;SDS011;1161;51.922;8.896;2024-01-27T02:18:52;25.40;;;4.83;;
2305;SDS011;1161;51.922;8.896;2024-01-27T02:21:19;11.63;;;4.30;;
2305;SDS011;1161;51.922;8.896;2024-01-27T02:23:47;17.40;;;5.43;;
2305;SDS011;1161;51.922;8.896;2024-01-27T02:26:15;23.73;;;5.77;;
2305;SDS011;1161;51.922;8.896;2024-01-27T02:28:42;37.77;;;8.40;;
2305;SDS011;1161;51.922;8.896;2024-01-27T02:31:09;14.80;;;6.10;;
2305;SDS011;1161;51.922;8.896;2024-01-27T02:33:35;21.53;;;6.77;;
2305;SDS011;1161;51.922;8.896;2024-01-27T02:36:02;21.47;;;5.70;;
2305;SDS011;1161;51.922;8.896;2024-01-27T02:38:29;20.67;;;6.93;;
2305;SDS011;1161;51.922;8.896;2024-01-27T02:40:56;7.03;;;4.80;;
2305;SDS011;1161;51.922;8.896;2024-01-27T02:43:24;17.03;;;5.87;;
2305;SDS011;1161;51.922;8.896;2024-01-27T02:45:51;7.73;;;5.27;;
2305;SDS011;1161;51.922;8.896;2024-01-27T02:48:18;15.17;;;6.17;;
2305;SDS011;1161;51.922;8.896;2024-01-27T02:50:45;19.53;;;6.77;;
2305;SDS011;1161;51.922;8.896;2024-01-27T02:53:12;17.10;;;4.60;;
2305;SDS011;1161;51.922;8.896;2024-01-27T02:55:39;28.23;;;5.83;;
2305;SDS011;1161;51.922;8.896;2024-01-27T02:58:06;13.30;;;4.90;;
2305;SDS011;1161;51.922;8.896;2024-01-27T03:00:34;19.10;;;6.03;;
2305;SDS011;1161;51.922;8.896;2024-01-27T03:03:01;26.70;;;7.90;;
2305;SDS011;1161;51.922;8.896;2024-01-27T03:05:27;15.47;;;7.20;;
2305;SDS011;1161;51.922;8.896;2024-01-27T03:07:55;18.47;;;5.17;;
2305;SDS011;1161;51.922;8.896;2024-01-27T03:10:22;21.00;;;6.27;;
2305;SDS011;1161;51.922;8.896;2024-01-27T03:12:49;32.17;;;5.90;;
2305;SDS011;1161;51.922;8.896;2024-01-27T03:15:16;19.30;;;5.87;;
2305;SDS011;1161;51.922;8.896;2024-01-27T03:17:44;13.27;;;5.70;;
2305;SDS011;1161;51.922;8.896;2024-01-27T03:20:11;33.87;;;7.00;;
2305;SDS011;1161;51.922;8.896;2024-01-27T03:22:37;22.60;;;6.47;;
2305;SDS011;1161;51.922;8.896;2024-01-27T03:25:06;13.40;;;6.27;;
2305;SDS011;1161;51.922;8.896;2024-01-27T03:27:33;20.00;;;7.27;;
2305;SDS011;1161;51.922;8.896;2024-01-27T03:30:01;20.83;;;6.50;;
2305;SDS011;1161;51.922;8.896;2024-01-27T03:32:29;29.63;;;6.90;;
2305;SDS011;1161;51.922;8.896;2024-01-27T03:34:58;19.90;;;6.70;;
2305;SDS011;1161;51.922;8.896;2024-01-27T03:37:25;31.23;;;8.93;;
2305;SDS011;1161;51.922;8.896;2024-01-27T03:39:52;36.17;;;7.80;;
2305;SDS011;1161;51.922;8.896;2024-01-27T03:42:19;26.90;;;9.03;;
2305;SDS011;1161;51.922;8.896;2024-01-27T03:44:46;27.30;;;7.97;;
2305;SDS011;1161;51.922;8.896;2024-01-27T03:47:12;24.37;;;11.27;;
2305;SDS011;1161;51.922;8.896;2024-01-27T03:49:40;15.93;;;6.40;;
2305;SDS011;1161;51.922;8.896;2024-01-27T03:52:08;19.77;;;8.17;;
2305;SDS011;1161;51.922;8.896;2024-01-27T03:54:37;30.33;;;8.63;;
2305;SDS011;1161;51.922;8.896;2024-01-27T03:57:04;23.10;;;7.97;;
2305;SDS011;1161;51.922;8.896;2024-01-27T03:59:30;30.43;;;8.67;;
2305;SDS011;1161;51.922;8.896;2024-01-27T04:01:58;33.97;;;11.50;;
2305;SDS011;1161;51.922;8.896;2024-01-27T04:04:25;31.47;;;7.63;;
2305;SDS011;1161;51.922;8.896;2024-01-27T04:06:53;29.57;;;9.10;;
2305;SDS011;1161;51.922;8.896;2024-01-27T04:09:21;15.93;;;7.00;;
2305;SDS011;1161;51.922;8.896;2024-01-27T04:11:49;24.10;;;8.00;;
2305;SDS011;1161;51.922;8.896;2024-01-27T04:14:16;31.80;;;8.03;;
2305;SDS011;1161;51.922;8.896;2024-01-27T04:16:43;23.20;;;8.20;;
2305;SDS011;1161;51.922;8.896;2024-01-27T04:19:10;24.23;;;7.33;;
2305;SDS011;1161;51.922;8.896;2024-01-27T04:21:37;21.83;;;7.70;;
2305;SDS011;1161;51.922;8.896;2024-01-27T04:24:04;27.53;;;9.47;;
2305;SDS011;1161;51.922;8.896;2024-01-27T04:26:34;26.20;;;9.17;;
2305;SDS011;1161;51.922;8.896;2024-01-27T04:29:03;19.73;;;9.57;;
2305;SDS011;1161;51.922;8.896;2024-01-27T04:31:32;19.83;;;7.10;;
2305;SDS011;1161;51.922;8.896;2024-01-27T04:34:00;20.00;;;9.43;;
2305;SDS011;1161;51.922;8.896;2024-01-27T04:36:35;25.00;;;9.60;;
2305;SDS011;1161;51.922;8.896;2024-01-27T04:39:03;43.40;;;9.73;;
2305;SDS011;1161;51.922;8.896;2024-01-27T04:41:31;32.97;;;8.80;;
2305;SDS011;1161;51.922;8.896;2024-01-27T04:44:00;26.07;;;7.93;;
2305;SDS011;1161;51.922;8.896;2024-01-27T04:46:27;27.27;;;7.27;;
2305;SDS011;1161;51.922;8.896;2024-01-27T04:48:54;29.83;;;9.40;;
2305;SDS011;1161;51.922;8.896;2024-01-27T04:51:23;41.20;;;9.20;;
2305;SDS011;1161;51.922;8.896;2024-01-27T04:53:50;18.80;;;7.63;;
2305;SDS011;1161;51.922;8.896;2024-01-27T04:56:20;22.57;;;8.80;;
2305;SDS011;1161;51.922;8.896;2024-01-27T04:58:47;17.07;;;8.10;;
2305;SDS011;1161;51.922;8.896;2024-01-27T05:01:19;16.13;;;7.53;;
2305;SDS011;1161;51.922;8.896;2024-01-27T05:03:51;16.30;;;8.17;;
2305;SDS011;1161;51.922;8.896;2024-01-27T05:06:19;31.10;;;9.30;;
2305;SDS011;1161;51.922;8.896;2024-01-27T05:08:52;18.23;;;7.37;;
2305;SDS011;1161;51.922;8.896;2024-01-27T05:11:30;16.80;;;8.57;;
2305;SDS011;1161;51.922;8.896;2024-01-27T05:14:01;22.07;;;7.87;;
2305;SDS011;1161;51.922;8.896;2024-01-27T05:16:34;18.07;;;7.43;;
2305;SDS011;1161;51.922;8.896;2024-01-27T05:19:04;20.23;;;6.90;;
2305;SDS011;1161;51.922;8.896;2024-01-27T05:21:41;36.77;;;8.30;;
2305;SDS011;1161;51.922;8.896;2024-01-27T05:24:08;24.43;;;7.40;;
2305;SDS011;1161;51.922;8.896;2024-01-27T05:26:35;16.83;;;7.80;;
2305;SDS011;1161;51.922;8.896;2024-01-27T05:29:02;25.33;;;9.10;;
2305;SDS011;1161;51.922;8.896;2024-01-27T05:31:28;27.03;;;10.17;;
2305;SDS011;1161;51.922;8.896;2024-01-27T05:33:57;52.93;;;12.07;;
2305;SDS011;1161;51.922;8.896;2024-01-27T05:36:26;28.13;;;11.23;;
2305;SDS011;1161;51.922;8.896;2024-01-27T05:38:54;37.37;;;12.10;;
2305;SDS011;1161;51.922;8.896;2024-01-27T05:41:25;34.80;;;12.37;;
2305;SDS011;1161;51.922;8.896;2024-01-27T05:43:54;33.17;;;13.57;;
2305;SDS011;1161;51.922;8.896;2024-01-27T05:46:22;25.30;;;12.20;;
2305;SDS011;1161;51.922;8.896;2024-01-27T05:48:49;30.77;;;13.67;;
2305;SDS011;1161;51.922;8.896;2024-01-27T05:51:20;27.50;;;14.40;;
2305;SDS011;1161;51.922;8.896;2024-01-27T05:53:48;39.83;;;17.40;;
2305;SDS011;1161;51.922;8.896;2024-01-27T05:56:15;39.93;;;21.77;;
2305;SDS011;1161;51.922;8.896;2024-01-27T05:58:43;37.23;;;16.40;;
2305;SDS011;1161;51.922;8.896;2024-01-27T06:01:10;37.50;;;21.27;;
2305;SDS011;1161;51.922;8.896;2024-01-27T06:03:36;42.20;;;19.90;;
2305;SDS011;1161;51.922;8.896;2024-01-27T06:06:03;44.27;;;17.63;;
2305;SDS011;1161;51.922;8.896;2024-01-27T06:08:31;33.93;;;16.73;;
2305;SDS011;1161;51.922;8.896;2024-01-27T06:10:58;35.80;;;18.80;;
2305;SDS011;1161;51.922;8.896;2024-01-27T06:13:25;51.40;;;21.70;;
2305;SDS011;1161;51.922;8.896;2024-01-27T06:15:52;36.03;;;18.27;;
2305;SDS011;1161;51.922;8.896;2024-01-27T06:18:19;54.23;;;19.43;;
2305;SDS011;1161;51.922;8.896;2024-01-27T06:20:45;47.57;;;16.57;;
2305;SDS011;1161;51.922;8.896;2024-01-27T06:23:12;51.50;;;17.30;;
2305;SDS011;1161;51.922;8.896;2024-01-27T06:25:41;74.97;;;22.33;;
2305;SDS011;1161;51.922;8.896;2024-01-27T06:28:07;71.60;;;23.10;;
2305;SDS011;1161;51.922;8.896;2024-01-27T06:30:34;72.17;;;25.37;;
2305;SDS011;1161;51.922;8.896;2024-01-27T06:33:01;41.07;;;20.67;;
2305;SDS011;1161;51.922;8.896;2024-01-27T06:35:28;81.07;;;26.57;;
2305;SDS011;1161;51.922;8.896;2024-01-27T06:37:55;48.03;;;22.20;;
2305;SDS011;1161;51.922;8.896;2024-01-27T06:40:21;59.47;;;22.20;;
2305;SDS011;1161;51.922;8.896;2024-01-27T06:42:50;55.70;;;25.97;;
2305;SDS011;1161;51.922;8.896;2024-01-27T06:45:17;59.80;;;28.07;;
2305;SDS011;1161;51.922;8.896;2024-01-27T06:47:44;62.00;;;27.27;;
2305;SDS011;1161;51.922;8.896;2024-01-27T06:50:10;78.97;;;25.02;;
2305;SDS011;1161;51.922;8.896;2024-01-27T06:52:39;59.35;;;29.45;;
2305;SDS011;1161;51.922;8.896;2024-01-27T06:55:06;51.25;;;23.55;;
2305;SDS011;1161;51.922;8.896;2024-01-27T06:57:33;62.30;;;27.95;;
2305;SDS011;1161;51.922;8.896;2024-01-27T07:00:01;48.93;;;25.37;;
2305;SDS011;1161;51.922;8.896;2024-01-27T07:02:28;44.93;;;22.57;;
2305;SDS011;1161;51.922;8.896;2024-01-27T07:04:55;49.20;;;23.60;;
2305;SDS011;1161;51.922;8.896;2024-01-27T07:07:22;66.90;;;24.57;;
2305;SDS011;1161;51.922;8.896;2024-01-27T07:09:51;51.85;;;23.30;;
2305;SDS011;1161;51.922;8.896;2024-01-27T07:12:18;54.27;;;23.10;;
2305;SDS011;1161;51.922;8.896;2024-01-27T07:14:45;46.90;;;21.10;;
2305;SDS011;1161;51.922;8.896;2024-01-27T07:17:13;43.80;;;22.60;;
2305;SDS011;1161;51.922;8.896;2024-01-27T07:19:40;47.37;;;21.10;;
2305;SDS011;1161;51.922;8.896;2024-01-27T07:22:07;43.10;;;19.07;;
2305;SDS011;1161;51.922;8.896;2024-01-27T07:24:34;47.70;;;19.77;;
2305;SDS011;1161;51.922;8.896;2024-01-27T07:27:00;57.15;;;21.77;;
2305;SDS011;1161;51.922;8.896;2024-01-27T07:29:27;48.40;;;23.20;;
2305;SDS011;1161;51.922;8.896;2024-01-27T07:31:54;48.23;;;19.73;;
2305;SDS011;1161;51.922;8.896;2024-01-27T07:34:22;27.90;;;18.20;;
2305;SDS011;1161;51.922;8.896;2024-01-27T07:36:49;41.27;;;20.83;;
2305;SDS011;1161;51.922;8.896;2024-01-27T07:39:17;42.00;;;16.57;;
2305;SDS011;1161;51.922;8.896;2024-01-27T07:41:43;58.97;;;20.35;;
2305;SDS011;1161;51.922;8.896;2024-01-27T07:44:10;40.20;;;16.33;;
2305;SDS011;1161;51.922;8.896;2024-01-27T07:46:40;48.03;;;19.03;;
2305;SDS011;1161;51.922;8.896;2024-01-27T07:49:08;38.07;;;18.27;;
2305;SDS011;1161;51.922;8.896;2024-01-27T07:51:36;56.23;;;17.07;;
2305;SDS011;1161;51.922;8.896;2024-01-27T07:54:03;39.27;;;18.33;;
2305;SDS011;1161;51.922;8.896;2024-01-27T07:56:30;54.33;;;16.30;;
2305;SDS011;1161;51.922;8.896;2024-01-27T07:58:57;36.47;;;17.83;;
2305;SDS011;1161;51.922;8.896;2024-01-27T08:01:23;39.57;;;15.20;;
2305;SDS011;1161;51.922;8.896;2024-01-27T08:03:50;32.33;;;13.87;;
2305;SDS011;1161;51.922;8.896;2024-01-27T08:06:17;27.27;;;15.40;;
2305;SDS011;1161;51.922;8.896;2024-01-27T08:08:47;24.75;;;14.65;;
2305;SDS011;1161;51.922;8.896;2024-01-27T08:11:14;31.00;;;12.93;;
2305;SDS011;1161;51.922;8.896;2024-01-27T08:13:42;38.93;;;16.97;;
2305;SDS011;1161;51.922;8.896;2024-01-27T08:16:09;25.37;;;12.83;;
2305;SDS011;1161;51.922;8.896;2024-01-27T08:18:38;22.57;;;14.73;;
2305;SDS011;1161;51.922;8.896;2024-01-27T08:21:05;43.93;;;14.50;;
2305;SDS011;1161;51.922;8.896;2024-01-27T08:23:32;25.07;;;12.53;;
2305;SDS011;1161;51.922;8.896;2024-01-27T08:26:00;29.60;;;10.00;;
2305;SDS011;1161;51.922;8.896;2024-01-27T08:28:27;34.47;;;11.20;;
2305;SDS011;1161;51.922;8.896;2024-01-27T08:30:54;35.60;;;12.83;;
2305;SDS011;1161;51.922;8.896;2024-01-27T08:33:20;24.60;;;11.07;;
2305;SDS011;1161;51.922;8.896;2024-01-27T08:35:47;24.63;;;12.23;;
2305;SDS011;1161;51.922;8.896;2024-01-27T08:38:14;29.67;;;14.70;;
2305;SDS011;1161;51.922;8.896;2024-01-27T08:40:41;26.27;;;12.57;;
2305;SDS011;1161;51.922;8.896;2024-01-27T08:43:09;32.13;;;11.43;;
2305;SDS011;1161;51.922;8.896;2024-01-27T08:45:37;33.63;;;11.90;;
2305;SDS011;1161;51.922;8.896;2024-01-27T08:48:05;28.30;;;11.67;;
2305;SDS011;1161;51.922;8.896;2024-01-27T08:50:33;16.60;;;11.40;;
2305;SDS011;1161;51.922;8.896;2024-01-27T08:52:59;30.03;;;11.90;;
2305;SDS011;1161;51.922;8.896;2024-01-27T08:55:27;32.87;;;12.83;;
2305;SDS011;1161;51.922;8.896;2024-01-27T08:57:53;30.23;;;11.23;;
2305;SDS011;1161;51.922;8.896;2024-01-27T09:00:22;26.30;;;13.33;;
2305;SDS011;1161;51.922;8.896;2024-01-27T09:02:49;37.07;;;12.83;;
2305;SDS011;1161;51.922;8.896;2024-01-27T09:05:17;51.40;;;10.63;;
2305;SDS011;1161;51.922;8.896;2024-01-27T09:07:44;60.93;;;11.97;;
2305;SDS011;1161;51.922;8.896;2024-01-27T09:10:11;22.03;;;10.60;;
2305;SDS011;1161;51.922;8.896;2024-01-27T09:12:41;37.10;;;13.37;;
2305;SDS011;1161;51.922;8.896;2024-01-27T09:15:07;31.80;;;12.00;;
2305;SDS011;1161;51.922;8.896;2024-01-27T09:17:36;42.17;;;12.63;;
2305;SDS011;1161;51.922;8.896;2024-01-27T09:20:03;41.67;;;13.67;;
2305;SDS011;1161;51.922;8.896;2024-01-27T09:22:31;70.87;;;12.27;;
2305;SDS011;1161;51.922;8.896;2024-01-27T09:24:58;33.33;;;10.23;;
2305;SDS011;1161;51.922;8.896;2024-01-27T09:27:25;22.90;;;8.53;;
2305;SDS011;1161;51.922;8.896;2024-01-27T09:29:52;30.43;;;10.30;;
2305;SDS011;1161;51.922;8.896;2024-01-27T09:32:18;35.50;;;11.23;;
2305;SDS011;1161;51.922;8.896;2024-01-27T09:34:47;37.53;;;11.50;;
2305;SDS011;1161;51.922;8.896;2024-01-27T09:37:13;48.90;;;11.20;;
2305;SDS011;1161;51.922;8.896;2024-01-27T09:39:40;18.77;;;9.20;;
2305;SDS011;1161;51.922;8.896;2024-01-27T09:42:07;37.23;;;11.97;;
2305;SDS011;1161;51.922;8.896;2024-01-27T09:44:35;35.23;;;11.40;;
2305;SDS011;1161;51.922;8.896;2024-01-27T09:47:02;23.97;;;8.67;;
2305;SDS011;1161;51.922;8.896;2024-01-27T09:49:29;32.70;;;8.70;;
2305;SDS011;1161;51.922;8.896;2024-01-27T09:51:57;18.80;;;7.80;;
2305;SDS011;1161;51.922;8.896;2024-01-27T09:54:24;26.60;;;9.50;;
2305;SDS011;1161;51.922;8.896;2024-01-27T09:56:51;23.80;;;9.33;;
2305;SDS011;1161;51.922;8.896;2024-01-27T09:59:18;29.83;;;9.50;;
2305;SDS011;1161;51.922;8.896;2024-01-27T10:01:46;28.13;;;8.23;;
2305;SDS011;1161;51.922;8.896;2024-01-27T10:04:13;22.87;;;8.40;;
2305;SDS011;1161;51.922;8.896;2024-01-27T10:06:40;20.47;;;8.50;;
2305;SDS011;1161;51.922;8.896;2024-01-27T10:09:09;16.97;;;6.47;;
2305;SDS011;1161;51.922;8.896;2024-01-27T10:11:36;32.40;;;8.80;;
2305;SDS011;1161;51.922;8.896;2024-01-27T10:14:04;28.50;;;8.13;;
2305;SDS011;1161;51.922;8.896;2024-01-27T10:16:39;19.10;;;7.40;;
2305;SDS011;1161;51.922;8.896;2024-01-27T10:19:06;9.50;;;6.40;;
2305;SDS011;1161;51.922;8.896;2024-01-27T10:21:33;19.93;;;8.47;;
2305;SDS011;1161;51.922;8.896;2024-01-27T10:24:00;11.30;;;7.37;;
2305;SDS011;1161;51.922;8.896;2024-01-27T10:26:31;15.67;;;8.43;;
2305;SDS011;1161;51.922;8.896;2024-01-27T10:28:58;17.97;;;8.27;;
2305;SDS011;1161;51.922;8.896;2024-01-27T10:31:26;20.43;;;8.60;;
2305;SDS011;1161;51.922;8.896;2024-01-27T10:33:54;16.97;;;8.13;;
2305;SDS011;1161;51.922;8.896;2024-01-27T10:36:22;26.17;;;7.47;;
2305;SDS011;1161;51.922;8.896;2024-01-27T10:38:49;34.70;;;7.77;;
2305;SDS011;1161;51.922;8.896;2024-01-27T10:41:18;17.07;;;7.43;;
2305;SDS011;1161;51.922;8.896;2024-01-27T10:43:50;25.17;;;9.90;;
2305;SDS011;1161;51.922;8.896;2024-01-27T10:46:17;26.67;;;7.13;;
2305;SDS011;1161;51.922;8.896;2024-01-27T10:48:45;16.30;;;6.60;;
2305;SDS011;1161;51.922;8.896;2024-01-27T10:51:16;38.33;;;7.77;;
2305;SDS011;1161;51.922;8.896;2024-01-27T10:53:45;19.90;;;7.00;;
2305;SDS011;1161;51.922;8.896;2024-01-27T10:56:15;34.03;;;7.90;;
2305;SDS011;1161;51.922;8.896;2024-01-27T10:58:42;35.47;;;8.07;;
2305;SDS011;1161;51.922;8.896;2024-01-27T11:01:13;12.17;;;6.23;;
2305;SDS011;1161;51.922;8.896;2024-01-27T11:03:40;19.20;;;7.67;;
2305;SDS011;1161;51.922;8.896;2024-01-27T11:06:08;23.17;;;7.23;;
2305;SDS011;1161;51.922;8.896;2024-01-27T11:08:35;22.17;;;8.17;;
2305;SDS011;1161;51.922;8.896;2024-01-27T11:11:02;19.47;;;5.90;;
2305;SDS011;1161;51.922;8.896;2024-01-27T11:13:30;18.33;;;6.00;;
2305;SDS011;1161;51.922;8.896;2024-01-27T11:15:57;24.70;;;6.87;;
2305;SDS011;1161;51.922;8.896;2024-01-27T11:18:26;24.40;;;6.73;;
2305;SDS011;1161;51.922;8.896;2024-01-27T11:20:53;19.80;;;6.30;;
2305;SDS011;1161;51.922;8.896;2024-01-27T11:23:20;17.07;;;6.03;;
2305;SDS011;1161;51.922;8.896;2024-01-27T11:25:47;25.20;;;5.73;;
2305;SDS011;1161;51.922;8.896;2024-01-27T11:28:15;14.17;;;4.73;;
2305;SDS011;1161;51.922;8.896;2024-01-27T11:30:44;18.33;;;6.00;;
2305;SDS011;1161;51.922;8.896;2024-01-27T11:33:12;23.70;;;7.30;;
2305;SDS011;1161;51.922;8.896;2024-01-27T11:35:41;11.77;;;5.30;;
2305;SDS011;1161;51.922;8.896;2024-01-27T11:38:08;12.10;;;4.50;;
2305;SDS011;1161;51.922;8.896;2024-01-27T11:40:44;20.17;;;5.87;;
2305;SDS011;1161;51.922;8.896;2024-01-27T11:43:11;15.07;;;4.70;;
2305;SDS011;1161;51.922;8.896;2024-01-27T11:45:39;19.40;;;6.30;;
2305;SDS011;1161;51.922;8.896;2024-01-27T11:48:06;11.10;;;4.37;;
2305;SDS011;1161;51.922;8.896;2024-01-27T11:50:33;14.40;;;4.93;;
2305;SDS011;1161;51.922;8.896;2024-01-27T11:53:01;15.20;;;5.00;;
2305;SDS011;1161;51.922;8.896;2024-01-27T11:55:28;44.10;;;9.57;;
2305;SDS011;1161;51.922;8.896;2024-01-27T11:57:55;20.63;;;6.80;;
2305;SDS011;1161;51.922;8.896;2024-01-27T12:00:22;12.03;;;5.10;;
2305;SDS011;1161;51.922;8.896;2024-01-27T12:02:50;14.10;;;4.60;;
2305;SDS011;1161;51.922;8.896;2024-01-27T12:05:17;14.27;;;5.53;;
2305;SDS011;1161;51.922;8.896;2024-01-27T12:07:44;19.40;;;6.00;;
2305;SDS011;1161;51.922;8.896;2024-01-27T12:10:12;19.53;;;5.57;;
2305;SDS011;1161;51.922;8.896;2024-01-27T12:12:39;14.70;;;4.83;;
2305;SDS011;1161;51.922;8.896;2024-01-27T12:15:05;11.93;;;4.57;;
2305;SDS011;1161;51.922;8.896;2024-01-27T12:17:32;10.20;;;3.60;;
2305;SDS011;1161;51.922;8.896;2024-01-27T12:19:59;14.43;;;3.57;;
2305;SDS011;1161;51.922;8.896;2024-01-27T12:22:27;11.73;;;4.17;;
2305;SDS011;1161;51.922;8.896;2024-01-27T12:24:55;11.47;;;4.77;;
2305;SDS011;1161;51.922;8.896;2024-01-27T12:27:23;18.40;;;4.77;;
2305;SDS011;1161;51.922;8.896;2024-01-27T12:29:50;28.57;;;4.93;;
2305;SDS011;1161;51.922;8.896;2024-01-27T12:32:17;18.40;;;5.40;;
2305;SDS011;1161;51.922;8.896;2024-01-27T12:34:44;13.10;;;5.53;;
2305;SDS011;1161;51.922;8.896;2024-01-27T12:37:13;3.57;;;3.13;;
2305;SDS011;1161;51.922;8.896;2024-01-27T12:39:40;18.73;;;4.40;;
2305;SDS011;1161;51.922;8.896;2024-01-27T12:42:08;15.93;;;4.50;;
2305;SDS011;1161;51.922;8.896;2024-01-27T12:44:36;14.00;;;4.77;;
2305;SDS011;1161;51.922;8.896;2024-01-27T12:47:03;15.40;;;4.50;;
2305;SDS011;1161;51.922;8.896;2024-01-27T12:49:29;10.70;;;5.10;;
2305;SDS011;1161;51.922;8.896;2024-01-27T12:51:57;12.17;;;4.57;;
2305;SDS011;1161;51.922;8.896;2024-01-27T12:54:23;14.43;;;4.17;;
2305;SDS011;1161;51.922;8.896;2024-01-27T12:56:50;19.30;;;6.03;;
2305;SDS011;1161;51.922;8.896;2024-01-27T12:59:17;20.23;;;6.30;;
2305;SDS011;1161;51.922;8.896;2024-01-27T13:01:45;19.07;;;5.37;;
2305;SDS011;1161;51.922;8.896;2024-01-27T13:04:12;31.00;;;5.67;;
2305;SDS011;1161;51.922;8.896;2024-01-27T13:06:39;21.13;;;5.07;;
2305;SDS011;1161;51.922;8.896;2024-01-27T13:09:07;15.93;;;5.30;;
2305;SDS011;1161;51.922;8.896;2024-01-27T13:11:36;9.67;;;4.47;;
2305;SDS011;1161;51.922;8.896;2024-01-27T13:14:03;28.43;;;4.70;;
2305;SDS011;1161;51.922;8.896;2024-01-27T13:16:31;14.83;;;4.87;;
2305;SDS011;1161;51.922;8.896;2024-01-27T13:18:59;11.77;;;5.47;;
2305;SDS011;1161;51.922;8.896;2024-01-27T13:21:26;23.97;;;6.07;;
2305;SDS011;1161;51.922;8.896;2024-01-27T13:23:52;10.93;;;5.03;;
2305;SDS011;1161;51.922;8.896;2024-01-27T13:26:20;10.20;;;3.90;;
2305;SDS011;1161;51.922;8.896;2024-01-27T13:28:47;9.03;;;4.20;;
2305;SDS011;1161;51.922;8.896;2024-01-27T13:31:14;23.87;;;6.53;;
2305;SDS011;1161;51.922;8.896;2024-01-27T13:33:41;26.17;;;5.10;;
2305;SDS011;1161;51.922;8.896;2024-01-27T13:36:09;23.97;;;5.53;;
2305;SDS011;1161;51.922;8.896;2024-01-27T13:38:36;12.03;;;6.40;;
2305;SDS011;1161;51.922;8.896;2024-01-27T13:41:03;14.70;;;5.00;;
2305;SDS011;1161;51.922;8.896;2024-01-27T13:43:30;9.20;;;4.70;;
2305;SDS011;1161;51.922;8.896;2024-01-27T13:45:56;16.70;;;5.10;;
2305;SDS011;1161;51.922;8.896;2024-01-27T13:48:23;19.90;;;5.23;;
2305;SDS011;1161;51.922;8.896;2024-01-27T13:50:50;17.47;;;4.93;;
2305;SDS011;1161;51.922;8.896;2024-01-27T13:53:20;20.73;;;5.67;;
2305;SDS011;1161;51.922;8.896;2024-01-27T13:55:47;20.90;;;5.70;;
2305;SDS011;1161;51.922;8.896;2024-01-27T13:58:13;21.10;;;5.70;;
2305;SDS011;1161;51.922;8.896;2024-01-27T14:00:40;14.30;;;4.30;;
2305;SDS011;1161;51.922;8.896;2024-01-27T14:03:07;12.00;;;3.80;;
2305;SDS011;1161;51.922;8.896;2024-01-27T14:05:34;17.93;;;4.87;;
2305;SDS011;1161;51.922;8.896;2024-01-27T14:08:04;7.60;;;4.00;;
2305;SDS011;1161;51.922;8.896;2024-01-27T14:10:34;20.17;;;5.27;;
2305;SDS011;1161;51.922;8.896;2024-01-27T14:13:01;18.83;;;7.00;;
2305;SDS011;1161;51.922;8.896;2024-01-27T14:15:29;27.90;;;10.10;;
2305;SDS011;1161;51.922;8.896;2024-01-27T14:17:56;20.73;;;8.13;;
2305;SDS011;1161;51.922;8.896;2024-01-27T14:20:23;16.20;;;4.53;;
2305;SDS011;1161;51.922;8.896;2024-01-27T14:22:50;19.83;;;7.03;;
2305;SDS011;1161;51.922;8.896;2024-01-27T14:25:17;39.43;;;13.67;;
2305;SDS011;1161;51.922;8.896;2024-01-27T14:27:45;38.93;;;14.70;;
2305;SDS011;1161;51.922;8.896;2024-01-27T14:30:12;37.90;;;12.30;;
2305;SDS011;1161;51.922;8.896;2024-01-27T14:32:39;15.60;;;5.37;;
2305;SDS011;1161;51.922;8.896;2024-01-27T14:35:07;24.30;;;5.53;;
2305;SDS011;1161;51.922;8.896;2024-01-27T14:37:34;28.17;;;5.07;;
2305;SDS011;1161;51.922;8.896;2024-01-27T14:40:01;13.20;;;5.03;;
2305;SDS011;1161;51.922;8.896;2024-01-27T14:42:30;27.87;;;7.40;;
2305;SDS011;1161;51.922;8.896;2024-01-27T14:44:58;12.00;;;5.10;;
2305;SDS011;1161;51.922;8.896;2024-01-27T14:47:25;8.77;;;5.13;;
2305;SDS011;1161;51.922;8.896;2024-01-27T14:49:52;24.80;;;5.43;;
2305;SDS011;1161;51.922;8.896;2024-01-27T14:52:18;22.43;;;6.77;;
2305;SDS011;1161;51.922;8.896;2024-01-27T14:54:47;17.43;;;4.43;;
2305;SDS011;1161;51.922;8.896;2024-01-27T14:57:14;15.73;;;5.20;;
2305;SDS011;1161;51.922;8.896;2024-01-27T14:59:41;18.40;;;5.00;;